< < Back
Terminal Aerodrome Forecast


Current Version              Previous Versions:   1  2  3  4  5  6  7  8  9  

Terminal Aerodrome Forecast

314
FTUS42 KJAX 251700
TAFJAX
TAF
KJAX 251720Z 2518/2618 34007KT P6SM SKC
     FM252300 00000KT P6SM SKC
     FM261500 32006KT P6SM SKC=



Latest METAR

202
SAUS80 KWBC 252200
MTRJAX
METAR KJAX 252156Z 08007KT 10SM CLR 22/11 A2995 RMK AO2 SLP143 T02220111
$


USA.gov is the U.S. government's official web portal to all federal, state and local government web resources and services.